Nearby METAR Reports

 

KSQL - San Carlos Airpo, California, USA
Distance from station: N 0mi, 1km
Updated: Sun, 21-Oct-2018 3:55pm PDT
Haze, Clear
Haze, Clear
 Wind from N
Wind: N 10 mph , 17 km/h
Temperature: 64°F , 18°C
Dew Point: 52°F , 11°C
Humidity: 64%
Barometer: 29.93 inHg , 1013.5 hPa
Summary: Haze
Clouds: Clear
Visibility: 10 miles , 16 km
2018/10/21 22:55 KSQL 212255Z 35009KT 10SM HZ SKC 18/11 A2993
KPAO - Palo Alto, California, USA
Distance from station: ESE 8mi, 13km
Updated: Sun, 21-Oct-2018 2:47pm PDT
NOT Current
Clear
Clear
 Wind from N
Wind: N 12 mph , 19 km/h
Temperature: 64°F , 18°C
Dew Point: 54°F , 12°C
Humidity: 68%
Barometer: 29.95 inHg , 1014.2 hPa
Clouds: Clear
Visibility: 10 miles , 16 km
2018/10/21 21:47 KPAO 212147Z 35010KT 10SM SKC 18/12 A2995
 
KSFO - San Francisco, California, USA
Distance from station: NW 10mi, 16km
Updated: Sun, 21-Oct-2018 3:56pm PDT
Few Clouds
Few Clouds
 Wind from WNW
Wind: WNW 21 mph , 33 km/h
Temperature: 61°F , 16°C
Dew Point: 52°F , 11°C
Humidity: 72%
Barometer: 29.92 inHg , 1013.2 hPa
Clouds: Few Clouds
Visibility: 10 miles , 16 km
Cloud details: Few Clouds 1100 ft
2018/10/21 22:56 KSFO 212256Z 30018KT 10SM FEW011 16/11 A2992 RMK AO2 SLP132 T01610106
KHWD - Hayward, California, USA
Distance from station: NE 13mi, 21km
Updated: Sun, 21-Oct-2018 3:54pm PDT
Clear
Clear
 Wind from W
Wind: W 10 mph , 17 km/h
Temperature: 66°F , 19°C
Dew Point: 52°F , 11°C
Humidity: 60%
Barometer: 29.93 inHg , 1013.5 hPa
Clouds: Clear
Visibility: 10 miles , 16 km
2018/10/21 22:54 KHWD 212254Z 28009KT 10SM CLR 19/11 A2993 RMK AO2 SLP143 T01890111
 
KNUQ - Moffett Nas/Mtn, California, USA
Distance from station: SE 13mi, 22km
Updated: Sun, 21-Oct-2018 3:56pm PDT
Clear
Clear
 Wind from N
Wind: N 8 mph , 13 km/h
Temperature: 64°F , 18°C
Dew Point: 54°F , 12°C
Humidity: 68%
Barometer: 29.94 inHg , 1013.9 hPa
Clouds: Clear
Visibility: 10 miles , 16 km
2018/10/21 22:56 KNUQ 212256Z 35007KT 10SM CLR 18/12 A2994 RMK AO2 SLP139 T01830117
KHAF - Half Moon Bay, California, USA
Distance from station: W 14mi, 22km
Updated: Wed, 03-Oct-2018 1:40pm PDT
NOT Current
Haze, Mostly cloudy
Haze, Mostly cloudy
 Wind from S
Wind: S 5 mph , 7 km/h
Temperature: 64°F , 18°C
Dew Point: 59°F , 15°C
Humidity: 83%
Barometer: 29.92 inHg , 1013.2 hPa
Summary: Haze
Clouds: Mostly cloudy
Visibility: 4 miles , 6 km
Cloud details: Few Clouds 2100 ft
Mostly cloudy 3000 ft
2018/10/03 20:40 KHAF 032040Z AUTO 19004KT 4SM HZ FEW021 BKN030 18/15 A2992 RMK AO2
 
KOAK - Oakland, California, USA
Distance from station: N 14mi, 23km
Updated: Sun, 21-Oct-2018 3:53pm PDT
Few Clouds
Few Clouds
 Wind from W
Wind: W 10 mph , 17 km/h
Temperature: 64°F , 18°C
Dew Point: 52°F , 11°C
Humidity: 64%
Barometer: 29.93 inHg , 1013.5 hPa
Clouds: Few Clouds
Visibility: 10 miles , 16 km
Cloud details: Few Clouds 1200 ft
2018/10/21 22:53 KOAK 212253Z 28009KT 10SM FEW012 18/11 A2993 RMK AO2 SLP137 T01780111
KSJC - San Jose, California, USA
Distance from station: ESE 21mi, 34km
Updated: Sun, 21-Oct-2018 3:53pm PDT
Few Clouds
Few Clouds
 Wind from NW
Wind: NW 9 mph , 15 km/h
Temperature: 68°F , 20°C
Dew Point: 52°F , 11°C
Humidity: 56%
Barometer: 29.93 inHg , 1013.5 hPa
Clouds: Few Clouds
Visibility: 9 miles , 14 km
Cloud details: Few Clouds 100 ft
2018/10/21 22:53 KSJC 212253Z 31008KT 9SM FEW001 20/11 A2993 RMK AO2 SLP133 T02000111
 
KLVK - Livermore, California, USA
Distance from station: ENE 27mi, 43km
Updated: Sun, 21-Oct-2018 3:53pm PDT
Clear
Clear
 Wind from W
Wind: W 7 mph , 11 km/h
Temperature: 79°F , 26°C
Dew Point: 48°F , 9°C
Humidity: 34%
Barometer: 29.89 inHg , 1012.2 hPa
Clouds: Clear
Visibility: 10 miles , 16 km
2018/10/21 22:53 KLVK 212253Z 27006KT 10SM CLR 26/09 A2989 RMK AO2 SLP120 T02560094
KRHV - San Jose/Reid, California, USA
Distance from station: ESE 27mi, 44km
Updated: Sun, 21-Oct-2018 3:55pm PDT
Clear
Clear
 Wind from WNW
Wind: WNW 7 mph , 11 km/h
Temperature: 70°F , 21°C
Dew Point: 54°F , 12°C
Humidity: 57%
Barometer: 29.92 inHg , 1013.2 hPa
Clouds: Clear
Visibility: 10 miles , 16 km
2018/10/21 22:55 KRHV 212255Z 30006KT 10SM SKC 21/12 A2992
 
KCCR - Concord, California, USA
Distance from station: NNE 35mi, 57km
Updated: Sun, 21-Oct-2018 3:53pm PDT
Clear
Clear
 Wind from NNW
Wind: NNW 12 mph , 19 km/h
Temperature: 73°F , 23°C
Dew Point: 50°F , 10°C
Humidity: 44%
Barometer: 29.90 inHg , 1012.5 hPa
Clouds: Clear
Visibility: 10 miles , 16 km
2018/10/21 22:53 KCCR 212253Z 33010KT 10SM CLR 23/10 A2990 RMK AO2 SLP111 T02330100
KE16 - San Martin, California, USA
Distance from station: SE 46mi, 75km
Updated: Sun, 21-Oct-2018 4:35pm PDT
Clear
Clear
 Wind from NNW
Wind: NNW 13 mph , 20 km/h
Temperature: 72°F , 22°C
Dew Point: 50°F , 10°C
Humidity: 47%
Barometer: 29.91 inHg , 1012.9 hPa
Clouds: Clear
Visibility: 10 miles , 16 km
2018/10/21 23:35 KE16 212335Z AUTO 33011KT 10SM CLR 22/10 A2991 RMK AO2
 
KDVO - Novato/Gnoss Fld, California, USA
Distance from station: NNW 47mi, 76km
Updated: Sun, 21-Oct-2018 4:35pm PDT
Clear
Clear
 Wind from NNW
Wind: NNW 14 mph , 22 km/h
Temperature: 70°F , 21°C
Dew Point: 52°F , 11°C
Humidity: 53%
Barometer: 29.91 inHg , 1012.9 hPa
Clouds: Clear
Visibility: 10 miles , 16 km
2018/10/21 23:35 KDVO 212335Z AUTO 34012KT 10SM CLR 21/11 A2991 RMK AO2
KWVI - Watsonville, California, USA
Distance from station: SSE 47mi, 76km
Updated: Sun, 21-Oct-2018 3:53pm PDT
Clear
Clear
 Wind from S
Wind: S 7 mph , 11 km/h
Temperature: 66°F , 19°C
Dew Point: 52°F , 11°C
Humidity: 60%
Barometer: 29.92 inHg , 1013.2 hPa
Clouds: Clear
Visibility: 10 miles , 16 km
2018/10/21 22:53 KWVI 212253Z AUTO 17006KT 10SM CLR 19/11 A2992 RMK AO2 SLP132 T01890111
 
KAPC - Napa, California, USA
Distance from station: N 48mi, 77km
Updated: Sun, 21-Oct-2018 3:54pm PDT
Clear
Clear
 Wind from SSW
Wind: SSW 8 mph , 13 km/h
Temperature: 66°F , 19°C
Dew Point: 54°F , 12°C
Humidity: 64%
Barometer: 29.92 inHg , 1013.2 hPa
Clouds: Clear
Visibility: 10 miles , 16 km
2018/10/21 22:54 KAPC 212254Z 20007KT 10SM CLR 19/12 A2992 RMK AO2 SLP121 T01940117
KO69 - Petaluma, California, USA
Distance from station: NNW 54mi, 88km
Updated: Sun, 21-Oct-2018 4:35pm PDT
Clear
Clear
 Wind from W
Wind: W 12 mph , 19 km/h
Temperature: 64°F , 18°C
Dew Point: 52°F , 11°C
Humidity: 64%
Barometer: 29.93 inHg , 1013.5 hPa
Clouds: Clear
Visibility: 9 miles , 14 km
2018/10/21 23:35 KO69 212335Z AUTO 28010KT 9SM CLR 18/11 A2993 RMK A01
 
KSUU - Travis Afb/Fairf, California, USA
Distance from station: NNE 55mi, 89km
Updated: Sun, 21-Oct-2018 3:58pm PDT
Clear
Clear
 Wind from SW
Wind: SW 14 mph , 22 km/h
Temperature: 77°F , 25°C
Dew Point: 46°F , 8°C
Humidity: 34%
Barometer: 29.88 inHg , 1011.9 hPa
Clouds: Clear
Visibility: 10 miles , 16 km
2018/10/21 22:58 KSUU 212258Z 23012KT 10SM CLR 25/08 A2988 RMK AO2A SLP125 T02520078 $
KCVH - Hollister Muni, California, USA
Distance from station: SE 62mi, 100km
Updated: Sun, 21-Oct-2018 4:35pm PDT
Clear
Clear
 Wind from WSW
Wind: WSW 15 mph , 24 km/h
Temperature: 70°F , 21°C
Dew Point: 52°F , 11°C
Humidity: 53%
Barometer: 29.89 inHg , 1012.2 hPa
Clouds: Clear
Visibility: 10 miles , 16 km
2018/10/21 23:35 KCVH 212335Z AUTO 25013KT 10SM CLR 21/11 A2989 RMK A01
 
KSCK - Stockton, California, USA
Distance from station: ENE 62mi, 100km
Updated: Sun, 21-Oct-2018 3:55pm PDT
Clear
Clear
 Wind from WNW
Wind: WNW 13 mph , 20 km/h
Temperature: 82°F , 28°C
Dew Point: 46°F , 8°C
Humidity: 28%
Barometer: 29.87 inHg , 1011.5 hPa
Clouds: Clear
Visibility: 7 miles , 11 km
2018/10/21 22:55 KSCK 212255Z 29011KT 7SM CLR 28/08 A2987 RMK AO2 SLP115 T02780078
KVCB - Vacaville, California, USA
Distance from station: NNE 62mi, 100km
Updated: Sun, 21-Oct-2018 3:53pm PDT
Clear
Clear
 Wind from calm
Wind: Calm
Temperature: 82°F , 28°C
Dew Point: 46°F , 8°C
Humidity: 28%
Barometer: 29.89 inHg , 1012.2 hPa
Clouds: Clear
Visibility: 10 miles , 16 km
2018/10/21 22:53 KVCB 212253Z AUTO 00000KT 10SM CLR 28/08 A2989 RMK AO2 SLP121 T02830078